TimeCST,TemperatureF,Dew PointF,Humidity,Sea Level PressureIn,VisibilityMPH,Wind Direction,Wind SpeedMPH,Gust SpeedMPH,PrecipitationIn,Events,Conditions,WindDirDegrees,DateUTC
12:10 AM,50.0,48.2,94,30.20,2.5,Calm,Calm,-,N/A,,Overcast,0,2013-11-22 06:10:00
12:23 AM,50.0,48.2,94,30.19,2.5,Calm,Calm,-,N/A,,Overcast,0,2013-11-22 06:23:00
12:42 AM,50.0,48.2,94,30.21,3.0,Calm,Calm,-,N/A,,Overcast,0,2013-11-22 06:42:00
12:53 AM,50.0,48.9,96,30.21,2.5,Calm,Calm,-,N/A,,Overcast,0,2013-11-22 06:53:00
1:09 AM,50.0,48.2,94,30.21,4.0,North,4.6,-,N/A,,Overcast,350,2013-11-22 07:09:00
1:53 AM,50.0,48.0,93,30.24,6.0,NNW,6.9,-,N/A,,Overcast,340,2013-11-22 07:53:00
2:53 AM,48.0,46.0,93,30.25,5.0,NNW,12.7,-,N/A,,Overcast,340,2013-11-22 08:53:00
3:53 AM,46.0,43.0,89,30.28,6.0,NNW,13.8,20.7,N/A,,Overcast,330,2013-11-22 09:53:00
4:53 AM,44.1,41.0,89,30.32,10.0,NNW,17.3,-,N/A,,Overcast,340,2013-11-22 10:53:00
5:53 AM,41.0,39.0,93,30.35,10.0,NW,16.1,-,N/A,,Overcast,320,2013-11-22 11:53:00
6:49 AM,39.2,37.4,93,30.37,10.0,NNW,19.6,-,N/A,,Overcast,330,2013-11-22 12:49:00
6:53 AM,39.9,37.0,89,30.38,10.0,NNW,16.1,-,N/A,,Overcast,330,2013-11-22 12:53:00
7:15 AM,39.2,37.4,93,30.38,9.0,NW,15.0,-,N/A,,Overcast,320,2013-11-22 13:15:00
7:53 AM,39.0,36.0,89,30.41,10.0,NW,15.0,-,N/A,,Overcast,320,2013-11-22 13:53:00
8:26 AM,39.2,35.6,87,30.41,10.0,NNW,17.3,-,N/A,,Overcast,340,2013-11-22 14:26:00
8:53 AM,39.0,36.0,89,30.43,10.0,NW,15.0,-,N/A,,Overcast,320,2013-11-22 14:53:00
9:53 AM,39.0,35.1,86,30.45,10.0,NNW,16.1,-,N/A,,Overcast,330,2013-11-22 15:53:00
10:53 AM,37.9,35.1,89,30.47,10.0,NW,15.0,-,N/A,,Overcast,320,2013-11-22 16:53:00
11:53 AM,39.0,34.0,82,30.46,10.0,North,12.7,-,N/A,,Overcast,350,2013-11-22 17:53:00
12:53 PM,39.9,34.0,79,30.44,10.0,North,12.7,-,N/A,,Overcast,360,2013-11-22 18:53:00
1:53 PM,39.0,33.1,79,30.45,10.0,NNW,11.5,-,N/A,,Overcast,340,2013-11-22 19:53:00
2:53 PM,37.9,33.1,83,30.46,10.0,North,12.7,-,N/A,,Overcast,350,2013-11-22 20:53:00
3:53 PM,37.9,32.0,79,30.51,10.0,NNW,15.0,21.9,N/A,,Overcast,340,2013-11-22 21:53:00
4:18 PM,37.4,32.0,81,30.52,10.0,NNW,17.3,23.0,N/A,,Overcast,330,2013-11-22 22:18:00
4:45 PM,37.4,30.2,75,30.51,10.0,North,12.7,-,N/A,,Overcast,360,2013-11-22 22:45:00
4:53 PM,37.0,30.9,79,30.53,10.0,North,13.8,-,N/A,,Overcast,350,2013-11-22 22:53:00
5:53 PM,37.0,30.9,79,30.54,10.0,NNW,10.4,-,N/A,,Overcast,340,2013-11-22 23:53:00
6:53 PM,36.0,30.0,79,30.53,10.0,North,12.7,-,N/A,,Overcast,350,2013-11-23 00:53:00
7:53 PM,36.0,28.9,76,30.53,10.0,North,11.5,-,N/A,,Overcast,350,2013-11-23 01:53:00
8:53 PM,36.0,28.9,76,30.53,10.0,North,9.2,-,N/A,,Overcast,360,2013-11-23 02:53:00
9:53 PM,36.0,30.0,79,30.54,10.0,NNW,10.4,-,N/A,,Overcast,340,2013-11-23 03:53:00
10:53 PM,36.0,28.9,76,30.53,10.0,North,12.7,-,N/A,,Overcast,350,2013-11-23 04:53:00
11:53 PM,35.1,28.9,78,30.54,10.0,North,12.7,-,N/A,,Overcast,350,2013-11-23 05:53:00